sensor_id;sensor_type;location;lat;lon;timestamp;P1;durP1;ratioP1;P2;durP2;ratioP2
64826;SDS011;51265;53.972;12.286;2023-12-20T00:00:02;6.25;;;2.35;;
64826;SDS011;51265;53.972;12.286;2023-12-20T00:02:30;11.02;;;2.50;;
64826;SDS011;51265;53.972;12.286;2023-12-20T00:04:57;6.97;;;2.08;;
64826;SDS011;51265;53.972;12.286;2023-12-20T00:07:23;10.32;;;2.42;;
64826;SDS011;51265;53.972;12.286;2023-12-20T00:09:50;9.15;;;2.00;;
64826;SDS011;51265;53.972;12.286;2023-12-20T00:12:16;11.63;;;2.03;;
64826;SDS011;51265;53.972;12.286;2023-12-20T00:14:42;4.47;;;1.77;;
64826;SDS011;51265;53.972;12.286;2023-12-20T00:17:08;5.68;;;1.67;;
64826;SDS011;51265;53.972;12.286;2023-12-20T00:19:35;4.65;;;1.50;;
64826;SDS011;51265;53.972;12.286;2023-12-20T00:22:01;9.75;;;1.70;;
64826;SDS011;51265;53.972;12.286;2023-12-20T00:24:28;6.40;;;2.10;;
64826;SDS011;51265;53.972;12.286;2023-12-20T00:26:54;9.10;;;1.45;;
64826;SDS011;51265;53.972;12.286;2023-12-20T00:29:20;3.97;;;1.30;;
64826;SDS011;51265;53.972;12.286;2023-12-20T00:31:46;9.45;;;1.33;;
64826;SDS011;51265;53.972;12.286;2023-12-20T00:34:12;12.18;;;1.70;;
64826;SDS011;51265;53.972;12.286;2023-12-20T00:36:38;4.75;;;1.50;;
64826;SDS011;51265;53.972;12.286;2023-12-20T00:39:05;5.30;;;1.00;;
64826;SDS011;51265;53.972;12.286;2023-12-20T00:41:32;5.82;;;1.30;;
64826;SDS011;51265;53.972;12.286;2023-12-20T00:43:58;4.40;;;1.10;;
64826;SDS011;51265;53.972;12.286;2023-12-20T00:46:25;11.15;;;2.17;;
64826;SDS011;51265;53.972;12.286;2023-12-20T00:48:51;7.35;;;1.42;;
64826;SDS011;51265;53.972;12.286;2023-12-20T00:51:17;8.30;;;2.80;;
64826;SDS011;51265;53.972;12.286;2023-12-20T00:53:43;12.80;;;1.75;;
64826;SDS011;51265;53.972;12.286;2023-12-20T00:56:09;4.57;;;1.67;;
64826;SDS011;51265;53.972;12.286;2023-12-20T00:58:36;6.57;;;1.10;;
64826;SDS011;51265;53.972;12.286;2023-12-20T01:01:02;7.65;;;1.17;;
64826;SDS011;51265;53.972;12.286;2023-12-20T01:03:28;9.60;;;1.40;;
64826;SDS011;51265;53.972;12.286;2023-12-20T01:05:55;4.65;;;1.55;;
64826;SDS011;51265;53.972;12.286;2023-12-20T01:08:21;6.32;;;1.48;;
64826;SDS011;51265;53.972;12.286;2023-12-20T01:10:48;8.43;;;1.38;;
64826;SDS011;51265;53.972;12.286;2023-12-20T01:13:14;4.97;;;1.23;;
64826;SDS011;51265;53.972;12.286;2023-12-20T01:15:40;7.72;;;1.30;;
64826;SDS011;51265;53.972;12.286;2023-12-20T01:18:07;4.90;;;1.30;;
64826;SDS011;51265;53.972;12.286;2023-12-20T01:20:33;4.68;;;0.95;;
64826;SDS011;51265;53.972;12.286;2023-12-20T01:22:59;7.05;;;1.10;;
64826;SDS011;51265;53.972;12.286;2023-12-20T01:25:26;4.50;;;1.30;;
64826;SDS011;51265;53.972;12.286;2023-12-20T01:27:52;9.73;;;1.40;;
64826;SDS011;51265;53.972;12.286;2023-12-20T01:30:18;8.70;;;1.17;;
64826;SDS011;51265;53.972;12.286;2023-12-20T01:32:45;11.27;;;1.70;;
64826;SDS011;51265;53.972;12.286;2023-12-20T01:35:11;6.65;;;1.60;;
64826;SDS011;51265;53.972;12.286;2023-12-20T01:37:38;12.27;;;1.90;;
64826;SDS011;51265;53.972;12.286;2023-12-20T01:40:05;8.73;;;1.80;;
64826;SDS011;51265;53.972;12.286;2023-12-20T01:42:31;6.28;;;1.73;;
64826;SDS011;51265;53.972;12.286;2023-12-20T01:44:57;9.27;;;2.28;;
64826;SDS011;51265;53.972;12.286;2023-12-20T01:47:24;7.63;;;2.30;;
64826;SDS011;51265;53.972;12.286;2023-12-20T01:49:50;5.45;;;2.25;;
64826;SDS011;51265;53.972;12.286;2023-12-20T01:52:17;4.63;;;2.15;;
64826;SDS011;51265;53.972;12.286;2023-12-20T01:54:43;9.77;;;2.47;;
64826;SDS011;51265;53.972;12.286;2023-12-20T01:57:09;7.40;;;1.90;;
64826;SDS011;51265;53.972;12.286;2023-12-20T01:59:37;7.38;;;2.20;;
64826;SDS011;51265;53.972;12.286;2023-12-20T02:02:05;10.10;;;1.80;;
64826;SDS011;51265;53.972;12.286;2023-12-20T02:04:33;8.80;;;1.70;;
64826;SDS011;51265;53.972;12.286;2023-12-20T02:06:59;12.88;;;1.80;;
64826;SDS011;51265;53.972;12.286;2023-12-20T02:09:27;11.55;;;2.00;;
64826;SDS011;51265;53.972;12.286;2023-12-20T02:11:54;10.05;;;1.90;;
64826;SDS011;51265;53.972;12.286;2023-12-20T02:14:20;15.30;;;2.38;;
64826;SDS011;51265;53.972;12.286;2023-12-20T02:16:46;6.63;;;1.83;;
64826;SDS011;51265;53.972;12.286;2023-12-20T02:19:15;8.57;;;2.25;;
64826;SDS011;51265;53.972;12.286;2023-12-20T02:21:43;4.70;;;1.63;;
64826;SDS011;51265;53.972;12.286;2023-12-20T02:24:09;9.30;;;2.10;;
64826;SDS011;51265;53.972;12.286;2023-12-20T02:26:35;9.98;;;2.08;;
64826;SDS011;51265;53.972;12.286;2023-12-20T02:29:02;12.38;;;2.42;;
64826;SDS011;51265;53.972;12.286;2023-12-20T02:31:28;12.00;;;2.03;;
64826;SDS011;51265;53.972;12.286;2023-12-20T02:33:54;12.43;;;2.70;;
64826;SDS011;51265;53.972;12.286;2023-12-20T02:36:20;12.32;;;2.40;;
64826;SDS011;51265;53.972;12.286;2023-12-20T02:38:46;10.00;;;1.77;;
64826;SDS011;51265;53.972;12.286;2023-12-20T02:41:12;9.65;;;2.20;;
64826;SDS011;51265;53.972;12.286;2023-12-20T02:43:40;11.68;;;2.28;;
64826;SDS011;51265;53.972;12.286;2023-12-20T02:46:06;13.18;;;2.17;;
64826;SDS011;51265;53.972;12.286;2023-12-20T02:48:32;12.30;;;2.35;;
64826;SDS011;51265;53.972;12.286;2023-12-20T02:50:58;13.05;;;2.33;;
64826;SDS011;51265;53.972;12.286;2023-12-20T02:53:25;18.23;;;2.70;;
64826;SDS011;51265;53.972;12.286;2023-12-20T02:55:51;11.90;;;2.40;;
64826;SDS011;51265;53.972;12.286;2023-12-20T02:58:17;13.75;;;2.60;;
64826;SDS011;51265;53.972;12.286;2023-12-20T03:00:43;18.35;;;2.63;;
64826;SDS011;51265;53.972;12.286;2023-12-20T03:03:10;15.57;;;2.90;;
64826;SDS011;51265;53.972;12.286;2023-12-20T03:05:36;19.15;;;2.75;;
64826;SDS011;51265;53.972;12.286;2023-12-20T03:08:02;13.88;;;2.42;;
64826;SDS011;51265;53.972;12.286;2023-12-20T03:10:28;21.70;;;2.90;;
64826;SDS011;51265;53.972;12.286;2023-12-20T03:12:54;13.05;;;2.42;;
64826;SDS011;51265;53.972;12.286;2023-12-20T03:15:20;12.63;;;1.98;;
64826;SDS011;51265;53.972;12.286;2023-12-20T03:17:47;15.50;;;2.45;;
64826;SDS011;51265;53.972;12.286;2023-12-20T03:20:15;14.77;;;2.40;;
64826;SDS011;51265;53.972;12.286;2023-12-20T03:22:41;16.15;;;2.03;;
64826;SDS011;51265;53.972;12.286;2023-12-20T03:25:07;14.15;;;2.40;;
64826;SDS011;51265;53.972;12.286;2023-12-20T03:27:36;15.30;;;2.00;;
64826;SDS011;51265;53.972;12.286;2023-12-20T03:30:04;14.35;;;2.10;;
64826;SDS011;51265;53.972;12.286;2023-12-20T03:32:31;11.95;;;1.80;;
64826;SDS011;51265;53.972;12.286;2023-12-20T03:34:58;12.90;;;2.45;;
64826;SDS011;51265;53.972;12.286;2023-12-20T03:37:24;15.50;;;2.55;;
64826;SDS011;51265;53.972;12.286;2023-12-20T03:39:50;13.52;;;1.73;;
64826;SDS011;51265;53.972;12.286;2023-12-20T03:42:16;16.30;;;1.92;;
64826;SDS011;51265;53.972;12.286;2023-12-20T03:44:42;16.35;;;2.55;;
64826;SDS011;51265;53.972;12.286;2023-12-20T03:47:09;19.95;;;2.42;;
64826;SDS011;51265;53.972;12.286;2023-12-20T03:49:35;16.02;;;2.22;;
64826;SDS011;51265;53.972;12.286;2023-12-20T03:52:02;16.23;;;2.38;;
64826;SDS011;51265;53.972;12.286;2023-12-20T03:54:29;12.45;;;1.63;;
64826;SDS011;51265;53.972;12.286;2023-12-20T03:56:55;16.25;;;2.65;;
64826;SDS011;51265;53.972;12.286;2023-12-20T03:59:21;13.32;;;2.17;;
64826;SDS011;51265;53.972;12.286;2023-12-20T04:01:47;21.45;;;2.50;;
64826;SDS011;51265;53.972;12.286;2023-12-20T04:04:14;13.82;;;1.85;;
64826;SDS011;51265;53.972;12.286;2023-12-20T04:06:40;18.05;;;2.03;;
64826;SDS011;51265;53.972;12.286;2023-12-20T04:09:06;14.90;;;2.13;;
64826;SDS011;51265;53.972;12.286;2023-12-20T04:11:35;15.38;;;2.90;;
64826;SDS011;51265;53.972;12.286;2023-12-20T04:14:02;17.23;;;2.78;;
64826;SDS011;51265;53.972;12.286;2023-12-20T04:16:28;16.38;;;3.00;;
64826;SDS011;51265;53.972;12.286;2023-12-20T04:18:54;13.73;;;2.35;;
64826;SDS011;51265;53.972;12.286;2023-12-20T04:21:20;18.90;;;3.50;;
64826;SDS011;51265;53.972;12.286;2023-12-20T04:23:46;16.52;;;2.58;;
64826;SDS011;51265;53.972;12.286;2023-12-20T04:26:13;23.30;;;3.05;;
64826;SDS011;51265;53.972;12.286;2023-12-20T04:28:39;13.20;;;2.85;;
64826;SDS011;51265;53.972;12.286;2023-12-20T04:31:05;16.85;;;2.88;;
64826;SDS011;51265;53.972;12.286;2023-12-20T04:33:31;15.93;;;3.45;;
64826;SDS011;51265;53.972;12.286;2023-12-20T04:35:57;15.95;;;3.35;;
64826;SDS011;51265;53.972;12.286;2023-12-20T04:38:23;16.75;;;3.17;;
64826;SDS011;51265;53.972;12.286;2023-12-20T04:40:49;10.95;;;2.88;;
64826;SDS011;51265;53.972;12.286;2023-12-20T04:43:16;15.77;;;3.17;;
64826;SDS011;51265;53.972;12.286;2023-12-20T04:45:43;14.30;;;3.55;;
64826;SDS011;51265;53.972;12.286;2023-12-20T04:48:09;16.60;;;3.20;;
64826;SDS011;51265;53.972;12.286;2023-12-20T04:50:35;12.80;;;3.67;;
64826;SDS011;51265;53.972;12.286;2023-12-20T04:53:01;18.40;;;3.88;;
64826;SDS011;51265;53.972;12.286;2023-12-20T04:55:27;16.00;;;4.10;;
64826;SDS011;51265;53.972;12.286;2023-12-20T04:57:53;15.45;;;3.53;;
64826;SDS011;51265;53.972;12.286;2023-12-20T05:00:20;17.75;;;4.13;;
64826;SDS011;51265;53.972;12.286;2023-12-20T05:02:46;11.77;;;4.28;;
64826;SDS011;51265;53.972;12.286;2023-12-20T05:05:12;14.13;;;4.05;;
64826;SDS011;51265;53.972;12.286;2023-12-20T05:07:41;13.32;;;3.72;;
64826;SDS011;51265;53.972;12.286;2023-12-20T05:10:07;11.65;;;3.50;;
64826;SDS011;51265;53.972;12.286;2023-12-20T05:12:34;17.40;;;4.45;;
64826;SDS011;51265;53.972;12.286;2023-12-20T05:15:00;15.40;;;3.60;;
64826;SDS011;51265;53.972;12.286;2023-12-20T05:17:26;20.02;;;4.38;;
64826;SDS011;51265;53.972;12.286;2023-12-20T05:19:53;15.30;;;3.92;;
64826;SDS011;51265;53.972;12.286;2023-12-20T05:22:19;15.52;;;4.55;;
64826;SDS011;51265;53.972;12.286;2023-12-20T05:24:45;11.73;;;3.83;;
64826;SDS011;51265;53.972;12.286;2023-12-20T05:27:12;20.42;;;4.18;;
64826;SDS011;51265;53.972;12.286;2023-12-20T05:29:38;14.52;;;3.63;;
64826;SDS011;51265;53.972;12.286;2023-12-20T05:32:05;12.40;;;3.75;;
64826;SDS011;51265;53.972;12.286;2023-12-20T05:34:31;13.90;;;3.70;;
64826;SDS011;51265;53.972;12.286;2023-12-20T05:36:57;15.40;;;3.53;;
64826;SDS011;51265;53.972;12.286;2023-12-20T05:39:24;16.40;;;3.22;;
64826;SDS011;51265;53.972;12.286;2023-12-20T05:41:50;20.75;;;4.22;;
64826;SDS011;51265;53.972;12.286;2023-12-20T05:44:16;10.90;;;3.60;;
64826;SDS011;51265;53.972;12.286;2023-12-20T05:46:42;14.13;;;3.58;;
64826;SDS011;51265;53.972;12.286;2023-12-20T05:49:08;19.27;;;3.85;;
64826;SDS011;51265;53.972;12.286;2023-12-20T05:51:35;10.95;;;3.63;;
64826;SDS011;51265;53.972;12.286;2023-12-20T05:54:01;12.63;;;3.58;;
64826;SDS011;51265;53.972;12.286;2023-12-20T05:56:27;11.55;;;3.45;;
64826;SDS011;51265;53.972;12.286;2023-12-20T05:58:53;16.88;;;3.63;;
64826;SDS011;51265;53.972;12.286;2023-12-20T06:01:19;16.60;;;4.03;;
64826;SDS011;51265;53.972;12.286;2023-12-20T06:03:45;12.68;;;3.85;;
64826;SDS011;51265;53.972;12.286;2023-12-20T06:06:11;20.60;;;4.22;;
64826;SDS011;51265;53.972;12.286;2023-12-20T06:08:38;11.18;;;3.55;;
64826;SDS011;51265;53.972;12.286;2023-12-20T06:11:05;18.35;;;4.20;;
64826;SDS011;51265;53.972;12.286;2023-12-20T06:13:34;17.77;;;3.67;;
64826;SDS011;51265;53.972;12.286;2023-12-20T06:16:00;16.02;;;3.28;;
64826;SDS011;51265;53.972;12.286;2023-12-20T06:18:26;11.10;;;4.07;;
64826;SDS011;51265;53.972;12.286;2023-12-20T06:20:52;16.35;;;4.55;;
64826;SDS011;51265;53.972;12.286;2023-12-20T06:23:20;12.23;;;4.45;;
64826;SDS011;51265;53.972;12.286;2023-12-20T06:25:46;12.02;;;3.85;;
64826;SDS011;51265;53.972;12.286;2023-12-20T06:28:12;8.95;;;3.80;;
64826;SDS011;51265;53.972;12.286;2023-12-20T06:30:40;12.50;;;3.75;;
64826;SDS011;51265;53.972;12.286;2023-12-20T06:33:06;13.68;;;4.20;;
64826;SDS011;51265;53.972;12.286;2023-12-20T06:35:32;9.98;;;4.15;;
64826;SDS011;51265;53.972;12.286;2023-12-20T06:37:59;12.18;;;4.40;;
64826;SDS011;51265;53.972;12.286;2023-12-20T06:40:25;19.55;;;4.75;;
64826;SDS011;51265;53.972;12.286;2023-12-20T06:42:51;19.25;;;4.85;;
64826;SDS011;51265;53.972;12.286;2023-12-20T06:45:17;13.35;;;4.80;;
64826;SDS011;51265;53.972;12.286;2023-12-20T06:47:43;13.45;;;4.68;;
64826;SDS011;51265;53.972;12.286;2023-12-20T06:50:18;14.00;;;4.57;;
64826;SDS011;51265;53.972;12.286;2023-12-20T06:52:44;12.18;;;4.82;;
64826;SDS011;51265;53.972;12.286;2023-12-20T06:55:10;16.27;;;4.90;;
64826;SDS011;51265;53.972;12.286;2023-12-20T06:57:36;15.05;;;4.72;;
64826;SDS011;51265;53.972;12.286;2023-12-20T07:00:03;11.15;;;4.25;;
64826;SDS011;51265;53.972;12.286;2023-12-20T07:02:30;14.43;;;4.25;;
64826;SDS011;51265;53.972;12.286;2023-12-20T07:04:57;16.98;;;4.55;;
64826;SDS011;51265;53.972;12.286;2023-12-20T07:07:23;12.95;;;3.95;;
64826;SDS011;51265;53.972;12.286;2023-12-20T07:09:50;16.17;;;4.50;;
64826;SDS011;51265;53.972;12.286;2023-12-20T07:12:16;13.57;;;4.55;;
64826;SDS011;51265;53.972;12.286;2023-12-20T07:14:44;12.95;;;4.10;;
64826;SDS011;51265;53.972;12.286;2023-12-20T07:17:11;15.55;;;4.25;;
64826;SDS011;51265;53.972;12.286;2023-12-20T07:19:39;9.95;;;3.92;;
64826;SDS011;51265;53.972;12.286;2023-12-20T07:22:06;14.43;;;4.18;;
64826;SDS011;51265;53.972;12.286;2023-12-20T07:24:33;18.95;;;4.68;;
64826;SDS011;51265;53.972;12.286;2023-12-20T07:27:00;17.67;;;5.00;;
64826;SDS011;51265;53.972;12.286;2023-12-20T07:29:26;13.02;;;4.00;;
64826;SDS011;51265;53.972;12.286;2023-12-20T07:31:53;13.70;;;4.82;;
64826;SDS011;51265;53.972;12.286;2023-12-20T07:34:20;13.48;;;4.30;;
64826;SDS011;51265;53.972;12.286;2023-12-20T07:36:46;18.02;;;4.65;;
64826;SDS011;51265;53.972;12.286;2023-12-20T07:39:13;15.70;;;4.60;;
64826;SDS011;51265;53.972;12.286;2023-12-20T07:41:40;11.05;;;4.13;;
64826;SDS011;51265;53.972;12.286;2023-12-20T07:44:06;11.20;;;4.60;;
64826;SDS011;51265;53.972;12.286;2023-12-20T07:46:32;15.93;;;4.80;;
64826;SDS011;51265;53.972;12.286;2023-12-20T07:48:59;16.20;;;4.40;;
64826;SDS011;51265;53.972;12.286;2023-12-20T07:51:25;17.23;;;5.07;;
64826;SDS011;51265;53.972;12.286;2023-12-20T07:53:51;12.73;;;5.07;;
64826;SDS011;51265;53.972;12.286;2023-12-20T07:56:18;13.13;;;4.22;;
64826;SDS011;51265;53.972;12.286;2023-12-20T07:58:45;12.73;;;3.92;;
64826;SDS011;51265;53.972;12.286;2023-12-20T08:01:12;12.20;;;4.50;;
64826;SDS011;51265;53.972;12.286;2023-12-20T08:03:38;15.65;;;6.55;;
64826;SDS011;51265;53.972;12.286;2023-12-20T08:06:04;17.23;;;4.47;;
64826;SDS011;51265;53.972;12.286;2023-12-20T08:08:30;10.32;;;4.18;;
64826;SDS011;51265;53.972;12.286;2023-12-20T08:10:57;13.07;;;4.25;;
64826;SDS011;51265;53.972;12.286;2023-12-20T08:13:25;12.82;;;4.15;;
64826;SDS011;51265;53.972;12.286;2023-12-20T08:15:52;12.00;;;5.13;;
64826;SDS011;51265;53.972;12.286;2023-12-20T08:18:19;16.05;;;5.18;;
64826;SDS011;51265;53.972;12.286;2023-12-20T08:20:45;10.55;;;4.40;;
64826;SDS011;51265;53.972;12.286;2023-12-20T08:23:12;13.07;;;4.60;;
64826;SDS011;51265;53.972;12.286;2023-12-20T08:25:38;16.95;;;3.83;;
64826;SDS011;51265;53.972;12.286;2023-12-20T08:28:04;17.38;;;4.05;;
64826;SDS011;51265;53.972;12.286;2023-12-20T08:30:31;12.00;;;3.80;;
64826;SDS011;51265;53.972;12.286;2023-12-20T08:33:01;11.88;;;3.75;;
64826;SDS011;51265;53.972;12.286;2023-12-20T08:35:27;8.88;;;3.40;;
64826;SDS011;51265;53.972;12.286;2023-12-20T08:37:53;18.88;;;3.92;;
64826;SDS011;51265;53.972;12.286;2023-12-20T08:40:19;17.60;;;3.85;;
64826;SDS011;51265;53.972;12.286;2023-12-20T08:42:46;14.38;;;3.97;;
64826;SDS011;51265;53.972;12.286;2023-12-20T08:45:12;12.57;;;3.83;;
64826;SDS011;51265;53.972;12.286;2023-12-20T08:47:38;9.80;;;4.38;;
64826;SDS011;51265;53.972;12.286;2023-12-20T08:50:04;17.38;;;4.32;;
64826;SDS011;51265;53.972;12.286;2023-12-20T08:52:31;13.65;;;3.65;;
64826;SDS011;51265;53.972;12.286;2023-12-20T08:54:57;10.45;;;3.03;;
64826;SDS011;51265;53.972;12.286;2023-12-20T08:57:23;13.70;;;3.13;;
64826;SDS011;51265;53.972;12.286;2023-12-20T08:59:50;14.82;;;3.63;;
64826;SDS011;51265;53.972;12.286;2023-12-20T09:02:16;10.63;;;2.38;;
64826;SDS011;51265;53.972;12.286;2023-12-20T09:04:43;5.60;;;2.00;;
64826;SDS011;51265;53.972;12.286;2023-12-20T09:07:22;7.05;;;2.00;;
64826;SDS011;51265;53.972;12.286;2023-12-20T09:09:49;7.22;;;2.45;;
64826;SDS011;51265;53.972;12.286;2023-12-20T09:12:15;5.47;;;1.98;;
64826;SDS011;51265;53.972;12.286;2023-12-20T09:14:43;7.78;;;2.15;;
64826;SDS011;51265;53.972;12.286;2023-12-20T09:17:09;10.13;;;2.88;;
64826;SDS011;51265;53.972;12.286;2023-12-20T09:19:37;7.00;;;2.30;;
64826;SDS011;51265;53.972;12.286;2023-12-20T09:22:05;5.35;;;2.00;;
64826;SDS011;51265;53.972;12.286;2023-12-20T09:24:31;6.72;;;2.40;;
64826;SDS011;51265;53.972;12.286;2023-12-20T09:26:57;7.80;;;2.47;;
64826;SDS011;51265;53.972;12.286;2023-12-20T09:29:24;8.38;;;2.53;;
64826;SDS011;51265;53.972;12.286;2023-12-20T09:31:50;7.65;;;2.65;;
64826;SDS011;51265;53.972;12.286;2023-12-20T09:34:16;8.98;;;2.20;;
64826;SDS011;51265;53.972;12.286;2023-12-20T09:36:43;6.63;;;2.60;;
64826;SDS011;51265;53.972;12.286;2023-12-20T09:39:16;8.10;;;2.08;;
64826;SDS011;51265;53.972;12.286;2023-12-20T09:41:51;7.80;;;2.10;;
64826;SDS011;51265;53.972;12.286;2023-12-20T09:44:27;9.50;;;2.05;;
64826;SDS011;51265;53.972;12.286;2023-12-20T09:46:54;7.20;;;2.00;;
64826;SDS011;51265;53.972;12.286;2023-12-20T09:49:21;12.10;;;2.58;;
64826;SDS011;51265;53.972;12.286;2023-12-20T09:51:48;11.45;;;2.67;;
64826;SDS011;51265;53.972;12.286;2023-12-20T09:54:17;9.82;;;2.72;;
64826;SDS011;51265;53.972;12.286;2023-12-20T09:56:44;7.82;;;2.60;;
64826;SDS011;51265;53.972;12.286;2023-12-20T09:59:10;8.70;;;2.28;;
64826;SDS011;51265;53.972;12.286;2023-12-20T10:01:38;8.90;;;2.47;;
64826;SDS011;51265;53.972;12.286;2023-12-20T10:04:06;14.93;;;2.80;;
64826;SDS011;51265;53.972;12.286;2023-12-20T10:06:44;5.53;;;2.35;;
64826;SDS011;51265;53.972;12.286;2023-12-20T10:09:10;7.13;;;2.75;;
64826;SDS011;51265;53.972;12.286;2023-12-20T10:11:37;10.73;;;2.47;;
64826;SDS011;51265;53.972;12.286;2023-12-20T10:14:04;10.20;;;3.08;;
64826;SDS011;51265;53.972;12.286;2023-12-20T10:16:31;10.52;;;3.45;;
64826;SDS011;51265;53.972;12.286;2023-12-20T10:18:59;12.32;;;3.08;;
64826;SDS011;51265;53.972;12.286;2023-12-20T10:21:27;14.88;;;3.60;;
64826;SDS011;51265;53.972;12.286;2023-12-20T10:23:53;14.10;;;4.15;;
64826;SDS011;51265;53.972;12.286;2023-12-20T10:26:24;16.95;;;3.22;;
64826;SDS011;51265;53.972;12.286;2023-12-20T10:28:59;8.00;;;3.10;;
64826;SDS011;51265;53.972;12.286;2023-12-20T10:31:30;8.93;;;3.03;;
64826;SDS011;51265;53.972;12.286;2023-12-20T10:33:58;12.93;;;3.40;;
64826;SDS011;51265;53.972;12.286;2023-12-20T10:36:25;11.43;;;3.00;;
64826;SDS011;51265;53.972;12.286;2023-12-20T10:38:53;19.65;;;4.72;;
64826;SDS011;51265;53.972;12.286;2023-12-20T10:41:25;7.88;;;2.90;;
64826;SDS011;51265;53.972;12.286;2023-12-20T10:43:59;16.08;;;4.03;;
64826;SDS011;51265;53.972;12.286;2023-12-20T10:46:29;12.25;;;3.10;;
64826;SDS011;51265;53.972;12.286;2023-12-20T10:48:56;12.55;;;3.08;;
64826;SDS011;51265;53.972;12.286;2023-12-20T10:51:23;11.00;;;3.40;;
64826;SDS011;51265;53.972;12.286;2023-12-20T10:53:52;8.73;;;2.58;;
64826;SDS011;51265;53.972;12.286;2023-12-20T10:56:19;9.63;;;2.22;;
64826;SDS011;51265;53.972;12.286;2023-12-20T10:58:48;7.97;;;2.13;;
64826;SDS011;51265;53.972;12.286;2023-12-20T11:01:15;6.00;;;1.60;;
64826;SDS011;51265;53.972;12.286;2023-12-20T11:03:50;5.18;;;1.58;;
64826;SDS011;51265;53.972;12.286;2023-12-20T11:08:56;6.20;;;1.67;;
64826;SDS011;51265;53.972;12.286;2023-12-20T11:11:42;4.78;;;1.10;;
64826;SDS011;51265;53.972;12.286;2023-12-20T11:14:18;5.10;;;1.25;;
64826;SDS011;51265;53.972;12.286;2023-12-20T11:16:49;5.95;;;1.45;;
64826;SDS011;51265;53.972;12.286;2023-12-20T11:19:17;6.75;;;1.27;;
64826;SDS011;51265;53.972;12.286;2023-12-20T11:21:43;6.55;;;1.33;;
64826;SDS011;51265;53.972;12.286;2023-12-20T11:24:12;7.15;;;0.75;;
64826;SDS011;51265;53.972;12.286;2023-12-20T11:26:38;3.90;;;1.00;;
64826;SDS011;51265;53.972;12.286;2023-12-20T11:32:03;3.17;;;0.60;;
64826;SDS011;51265;53.972;12.286;2023-12-20T11:34:56;3.33;;;0.52;;
64826;SDS011;51265;53.972;12.286;2023-12-20T11:37:31;2.22;;;0.40;;
64826;SDS011;51265;53.972;12.286;2023-12-20T11:40:02;4.88;;;0.57;;
64826;SDS011;51265;53.972;12.286;2023-12-20T11:42:37;4.75;;;0.63;;
64826;SDS011;51265;53.972;12.286;2023-12-20T11:45:04;2.45;;;0.70;;
64826;SDS011;51265;53.972;12.286;2023-12-20T11:47:30;1.77;;;0.30;;
64826;SDS011;51265;53.972;12.286;2023-12-20T11:49:57;0.80;;;0.20;;
64826;SDS011;51265;53.972;12.286;2023-12-20T11:52:26;1.48;;;0.30;;
64826;SDS011;51265;53.972;12.286;2023-12-20T11:54:52;1.02;;;0.40;;
64826;SDS011;51265;53.972;12.286;2023-12-20T11:57:18;1.42;;;0.52;;
64826;SDS011;51265;53.972;12.286;2023-12-20T11:59:44;2.22;;;0.52;;
64826;SDS011;51265;53.972;12.286;2023-12-20T12:02:11;4.10;;;0.60;;
64826;SDS011;51265;53.972;12.286;2023-12-20T12:04:37;1.25;;;0.35;;
64826;SDS011;51265;53.972;12.286;2023-12-20T12:07:04;0.73;;;0.30;;
64826;SDS011;51265;53.972;12.286;2023-12-20T12:09:30;3.67;;;0.45;;
64826;SDS011;51265;53.972;12.286;2023-12-20T12:11:56;2.63;;;0.40;;
64826;SDS011;51265;53.972;12.286;2023-12-20T12:14:22;2.20;;;0.40;;
64826;SDS011;51265;53.972;12.286;2023-12-20T12:16:49;2.95;;;0.40;;
64826;SDS011;51265;53.972;12.286;2023-12-20T12:19:22;2.25;;;0.60;;
64826;SDS011;51265;53.972;12.286;2023-12-20T12:22:05;3.05;;;0.60;;
64826;SDS011;51265;53.972;12.286;2023-12-20T12:24:39;4.20;;;0.77;;
64826;SDS011;51265;53.972;12.286;2023-12-20T12:27:06;2.83;;;0.77;;
64826;SDS011;51265;53.972;12.286;2023-12-20T12:29:33;4.57;;;0.68;;
64826;SDS011;51265;53.972;12.286;2023-12-20T12:32:00;4.20;;;0.60;;
64826;SDS011;51265;53.972;12.286;2023-12-20T12:34:27;4.75;;;1.50;;
64826;SDS011;51265;53.972;12.286;2023-12-20T12:36:54;2.00;;;0.60;;
64826;SDS011;51265;53.972;12.286;2023-12-20T12:39:21;6.07;;;0.80;;
64826;SDS011;51265;53.972;12.286;2023-12-20T12:41:51;3.25;;;0.65;;
64826;SDS011;51265;53.972;12.286;2023-12-20T12:44:17;8.05;;;0.60;;
64826;SDS011;51265;53.972;12.286;2023-12-20T12:46:45;2.13;;;0.50;;
64826;SDS011;51265;53.972;12.286;2023-12-20T12:49:12;3.40;;;1.13;;
64826;SDS011;51265;53.972;12.286;2023-12-20T12:51:38;4.57;;;0.68;;
64826;SDS011;51265;53.972;12.286;2023-12-20T12:54:05;2.55;;;0.40;;
64826;SDS011;51265;53.972;12.286;2023-12-20T12:56:31;3.70;;;0.82;;
64826;SDS011;51265;53.972;12.286;2023-12-20T12:58:57;6.45;;;1.10;;
64826;SDS011;51265;53.972;12.286;2023-12-20T13:01:24;2.30;;;0.60;;
64826;SDS011;51265;53.972;12.286;2023-12-20T13:03:50;4.68;;;0.73;;
64826;SDS011;51265;53.972;12.286;2023-12-20T13:06:16;6.75;;;0.80;;
64826;SDS011;51265;53.972;12.286;2023-12-20T13:08:43;5.18;;;0.77;;
64826;SDS011;51265;53.972;12.286;2023-12-20T13:11:10;5.50;;;1.10;;
64826;SDS011;51265;53.972;12.286;2023-12-20T13:13:36;9.73;;;1.30;;
64826;SDS011;51265;53.972;12.286;2023-12-20T13:16:02;2.70;;;0.60;;
64826;SDS011;51265;53.972;12.286;2023-12-20T13:18:28;6.07;;;0.75;;
64826;SDS011;51265;53.972;12.286;2023-12-20T13:20:55;6.18;;;0.90;;
64826;SDS011;51265;53.972;12.286;2023-12-20T13:23:21;5.30;;;0.70;;
64826;SDS011;51265;53.972;12.286;2023-12-20T13:25:47;4.10;;;0.60;;
64826;SDS011;51265;53.972;12.286;2023-12-20T13:28:13;4.70;;;0.70;;
64826;SDS011;51265;53.972;12.286;2023-12-20T13:30:40;4.97;;;0.95;;
64826;SDS011;51265;53.972;12.286;2023-12-20T13:33:06;4.40;;;0.77;;
64826;SDS011;51265;53.972;12.286;2023-12-20T13:35:33;9.65;;;1.20;;
64826;SDS011;51265;53.972;12.286;2023-12-20T13:38:00;5.38;;;0.75;;
64826;SDS011;51265;53.972;12.286;2023-12-20T13:40:26;4.28;;;0.80;;
64826;SDS011;51265;53.972;12.286;2023-12-20T13:42:54;5.50;;;0.80;;
64826;SDS011;51265;53.972;12.286;2023-12-20T13:45:20;4.10;;;0.60;;
64826;SDS011;51265;53.972;12.286;2023-12-20T13:47:47;2.33;;;1.17;;
64826;SDS011;51265;53.972;12.286;2023-12-20T13:50:13;4.10;;;0.63;;
64826;SDS011;51265;53.972;12.286;2023-12-20T13:52:39;4.40;;;1.00;;
64826;SDS011;51265;53.972;12.286;2023-12-20T13:55:05;3.65;;;0.70;;
64826;SDS011;51265;53.972;12.286;2023-12-20T13:57:33;6.38;;;0.90;;
64826;SDS011;51265;53.972;12.286;2023-12-20T13:59:59;6.15;;;0.80;;
64826;SDS011;51265;53.972;12.286;2023-12-20T14:02:26;6.18;;;0.80;;
64826;SDS011;51265;53.972;12.286;2023-12-20T14:04:52;4.85;;;0.90;;
64826;SDS011;51265;53.972;12.286;2023-12-20T14:07:18;4.97;;;1.02;;
64826;SDS011;51265;53.972;12.286;2023-12-20T14:09:45;7.60;;;1.33;;
64826;SDS011;51265;53.972;12.286;2023-12-20T14:12:11;8.10;;;1.17;;
64826;SDS011;51265;53.972;12.286;2023-12-20T14:14:38;7.85;;;1.35;;
64826;SDS011;51265;53.972;12.286;2023-12-20T14:17:04;6.05;;;1.63;;
64826;SDS011;51265;53.972;12.286;2023-12-20T14:19:32;5.93;;;1.23;;
64826;SDS011;51265;53.972;12.286;2023-12-20T14:21:58;5.57;;;1.00;;
64826;SDS011;51265;53.972;12.286;2023-12-20T14:24:27;5.97;;;1.30;;
64826;SDS011;51265;53.972;12.286;2023-12-20T14:26:54;6.40;;;1.30;;
64826;SDS011;51265;53.972;12.286;2023-12-20T14:29:20;5.45;;;1.08;;
64826;SDS011;51265;53.972;12.286;2023-12-20T14:31:46;7.25;;;1.83;;